createdAt,value
2022-11-05T00:02:57.946Z,9.30
2022-11-05T00:08:21.817Z,9.32
2022-11-05T00:13:50.794Z,9.33
2022-11-05T00:19:08.056Z,9.37
2022-11-05T00:24:28.689Z,9.40
2022-11-05T00:29:30.635Z,9.42
2022-11-05T00:34:32.728Z,9.42
2022-11-05T00:39:34.625Z,9.38
2022-11-05T00:44:55.296Z,9.31
2022-11-05T00:49:57.110Z,9.26
2022-11-05T00:54:59.025Z,9.21
2022-11-05T01:00:00.878Z,9.17
2022-11-05T01:05:03.053Z,9.16
2022-11-05T01:10:05.663Z,9.11
2022-11-05T01:15:08.139Z,9.08
2022-11-05T01:20:11.106Z,9.07
2022-11-05T01:25:13.018Z,9.10
2022-11-05T01:30:15.212Z,9.11
2022-11-05T01:35:18.311Z,9.05
2022-11-05T01:40:22.079Z,8.96
2022-11-05T01:45:28.480Z,8.89
2022-11-05T01:50:49.216Z,8.84
2022-11-05T01:55:57.713Z,8.79
2022-11-05T02:00:59.531Z,8.76
2022-11-05T02:06:03.947Z,8.75
2022-11-05T02:11:05.839Z,8.80
2022-11-05T02:16:43.781Z,8.86
2022-11-05T02:22:15.747Z,8.92
2022-11-05T02:27:36.385Z,8.92
2022-11-05T02:33:35.571Z,8.92
2022-11-05T02:39:07.397Z,8.97
2022-11-05T02:44:45.210Z,9.01
2022-11-05T02:50:04.492Z,9.04
2022-11-05T02:55:25.310Z,9.03
2022-11-05T03:00:43.312Z,9.00
2022-11-05T03:05:59.078Z,8.90
2022-11-05T03:11:13.344Z,8.80
2022-11-05T03:16:40.506Z,8.75
2022-11-05T03:21:49.944Z,8.66
2022-11-05T03:27:02.598Z,8.60
2022-11-05T03:32:07.029Z,8.54
2022-11-05T03:37:10.971Z,8.51
2022-11-05T03:42:17.111Z,8.49
2022-11-05T03:47:26.486Z,8.46
2022-11-05T03:52:33.506Z,8.42
2022-11-05T03:57:39.438Z,8.37
2022-11-05T04:02:41.942Z,8.30
2022-11-05T04:08:03.795Z,8.21
2022-11-05T04:13:24.224Z,8.10
2022-11-05T04:18:26.184Z,8.01
2022-11-05T05:27:47.390Z,7.73
2022-11-05T05:32:49.577Z,7.88
2022-11-05T05:37:55.682Z,7.87
2022-11-05T05:42:57.573Z,7.85
2022-11-05T05:47:59.342Z,7.80
2022-11-05T05:53:01.300Z,7.76
2022-11-05T05:58:03.209Z,7.74
2022-11-05T06:03:06.784Z,7.71
2022-11-05T06:08:08.711Z,7.68
2022-11-05T06:13:11.072Z,7.65
2022-11-05T06:18:13.252Z,7.65
2022-11-05T06:23:15.158Z,7.65
2022-11-05T06:28:16.919Z,7.66
2022-11-05T06:33:18.808Z,7.69
2022-11-05T06:38:20.987Z,7.72
2022-11-05T06:43:22.867Z,7.73
2022-11-05T06:48:25.671Z,7.76
2022-11-05T06:53:27.852Z,7.78
2022-11-05T06:58:31.162Z,7.83
2022-11-05T07:03:32.979Z,7.84
2022-11-05T07:08:36.220Z,7.84
2022-11-05T07:13:38.263Z,7.89
2022-11-05T07:18:40.104Z,7.89
2022-11-05T07:23:41.989Z,7.91
2022-11-05T07:28:43.750Z,7.93
2022-11-05T07:33:45.635Z,7.95
2022-11-05T07:38:47.407Z,7.95
2022-11-05T07:43:49.289Z,7.90
2022-11-05T07:48:51.061Z,7.91
2022-11-05T07:53:52.833Z,7.92
2022-11-05T07:58:54.715Z,7.92
2022-11-05T08:03:56.593Z,7.96
2022-11-05T08:08:58.331Z,-100.81
2022-11-05T08:14:00.084Z,-128.00
2022-11-05T08:19:01.914Z,-128.00
2022-11-05T08:24:03.858Z,-128.00
2022-11-05T08:42:58.245Z,8.19
2022-11-05T08:48:05.020Z,8.35
2022-11-05T08:53:08.322Z,8.25
2022-11-05T08:58:15.517Z,8.26
2022-11-05T09:03:18.110Z,-18.99
2022-11-05T09:08:19.976Z,-128.00
2022-11-05T09:13:23.053Z,-128.00
2022-11-05T09:18:25.166Z,-128.00
2022-11-05T09:23:26.938Z,-128.00
2022-11-05T09:28:28.916Z,-128.00
2022-11-05T09:33:31.137Z,-128.00
2022-11-05T09:38:35.052Z,-128.00
2022-11-05T09:43:42.232Z,-128.00
2022-11-05T09:48:49.235Z,-128.00
2022-11-05T09:53:51.906Z,-128.00
2022-11-05T09:59:02.417Z,-128.00
2022-11-05T10:04:14.338Z,-128.00
2022-11-05T10:09:40.356Z,-128.00
2022-11-05T10:14:47.370Z,-128.00
2022-11-05T10:20:02.707Z,-128.00
2022-11-05T10:25:17.143Z,-128.00
2022-11-05T10:30:20.232Z,-128.00
2022-11-05T10:35:24.945Z,-128.00
2022-11-05T10:40:54.985Z,-128.00
2022-11-05T10:46:06.394Z,-128.00
2022-11-05T10:51:08.876Z,-128.00
2022-11-05T10:56:34.744Z,-128.00
2022-11-05T11:01:36.915Z,-128.00
2022-11-05T11:06:48.090Z,-128.00
2022-11-05T11:11:57.019Z,-128.00
2022-11-05T11:17:29.974Z,-128.00
2022-11-05T11:22:31.852Z,-128.00
2022-11-05T11:27:34.853Z,-128.00
2022-11-05T11:32:39.393Z,-128.00
2022-11-05T11:50:33.340Z,9.03
2022-11-05T11:55:35.219Z,8.96
2022-11-05T12:00:47.544Z,8.85
2022-11-05T12:06:06.329Z,8.78
2022-11-05T12:11:21.509Z,8.74
2022-11-05T12:16:34.647Z,8.68
2022-11-05T12:22:04.686Z,8.73
2022-11-05T12:27:39.125Z,8.89
2022-11-05T12:32:49.397Z,8.99
2022-11-05T12:38:16.264Z,8.97
2022-11-05T12:43:52.138Z,8.99
2022-11-05T12:49:01.762Z,9.01
2022-11-05T12:54:29.477Z,9.10
2022-11-05T12:59:43.642Z,9.15
2022-11-05T13:05:27.910Z,9.17
2022-11-05T13:10:50.983Z,9.13
2022-11-05T13:16:21.021Z,9.19
2022-11-05T13:21:26.329Z,9.26
2022-11-05T13:26:51.365Z,9.29
2022-11-05T13:32:12.025Z,9.29
2022-11-05T13:37:36.124Z,9.30
2022-11-05T13:43:11.341Z,9.29
2022-11-05T13:48:22.684Z,9.26
2022-11-05T13:54:02.351Z,9.30
2022-11-05T13:59:51.093Z,9.40
2022-11-05T14:05:01.707Z,9.46
2022-11-05T14:10:21.702Z,9.47
2022-11-05T14:15:29.134Z,9.44
2022-11-05T14:20:30.993Z,9.41
2022-11-05T14:25:36.041Z,9.40
2022-11-05T14:30:44.089Z,9.43
2022-11-05T14:35:46.035Z,9.46
2022-11-05T14:40:48.835Z,9.45
2022-11-05T14:46:08.431Z,9.39
2022-11-05T14:51:24.438Z,9.37
2022-11-05T14:56:26.422Z,9.37
2022-11-05T15:01:34.186Z,9.31
2022-11-05T15:06:37.030Z,9.24
2022-11-05T15:12:15.485Z,9.21
2022-11-05T15:17:33.322Z,9.19
2022-11-05T15:22:43.673Z,9.15
2022-11-05T15:28:05.389Z,9.12
2022-11-05T15:33:22.008Z,9.10
2022-11-05T15:38:27.007Z,9.05
2022-11-05T15:43:29.089Z,8.99
2022-11-05T15:48:31.844Z,8.98
2022-11-05T15:54:08.375Z,9.02
2022-11-05T15:59:29.716Z,9.04
2022-11-05T16:04:35.176Z,9.02
2022-11-05T16:09:40.738Z,9.00
2022-11-05T16:14:42.957Z,8.94
2022-11-05T16:19:46.214Z,8.95
2022-11-05T16:24:49.058Z,8.96
2022-11-05T16:29:56.349Z,8.94
2022-11-05T16:34:58.421Z,8.89
2022-11-05T16:40:00.600Z,8.87
2022-11-05T16:45:02.443Z,8.82
2022-11-05T16:50:21.047Z,8.80
2022-11-05T16:55:23.339Z,8.81
2022-11-05T17:00:26.442Z,8.82
2022-11-05T17:05:30.535Z,8.84
2022-11-05T17:10:32.384Z,8.82
2022-11-05T17:15:37.302Z,8.80
2022-11-05T17:20:43.847Z,8.78
2022-11-05T17:26:01.224Z,8.73
2022-11-05T17:31:05.219Z,8.71
2022-11-05T17:36:09.521Z,8.73
2022-11-05T17:41:22.227Z,8.66
2022-11-05T17:46:25.019Z,8.60
2022-11-05T17:51:26.896Z,8.55
2022-11-05T17:56:34.425Z,8.51
2022-11-05T18:01:43.357Z,8.48
2022-11-05T18:06:45.471Z,8.47
2022-11-05T18:11:47.309Z,8.41
2022-11-05T18:16:50.314Z,8.47
2022-11-05T18:21:52.185Z,8.48
2022-11-05T18:26:54.169Z,8.48
2022-11-05T18:31:56.024Z,8.46
2022-11-05T18:36:57.919Z,8.50
2022-11-05T18:41:59.798Z,8.51
2022-11-05T18:47:01.781Z,8.53
2022-11-05T18:52:04.678Z,8.56
2022-11-05T18:57:06.560Z,8.51
2022-11-05T19:02:10.702Z,8.50
2022-11-05T19:07:12.673Z,8.51
2022-11-05T19:12:14.542Z,8.50
2022-11-05T19:17:16.422Z,8.44
2022-11-05T19:22:18.298Z,8.40
2022-11-05T19:27:20.193Z,8.41
2022-11-05T19:32:22.108Z,8.34
2022-11-05T19:37:23.923Z,8.26
2022-11-05T19:42:27.038Z,8.22
2022-11-05T19:47:28.915Z,8.18
2022-11-05T19:52:30.722Z,8.11
2022-11-05T19:57:36.767Z,8.05
2022-11-05T20:02:38.621Z,8.01
2022-11-05T20:07:41.122Z,7.98
2022-11-05T20:12:42.855Z,7.95
2022-11-05T20:17:51.477Z,7.92
2022-11-05T20:22:53.341Z,7.89
2022-11-05T20:27:56.719Z,7.89
2022-11-05T20:32:58.612Z,7.86
2022-11-05T20:38:00.485Z,7.81
2022-11-05T20:43:02.364Z,7.76
2022-11-05T20:48:04.378Z,7.72
2022-11-05T20:53:06.329Z,7.68
2022-11-05T20:58:08.207Z,7.62
2022-11-05T21:03:09.937Z,7.59
2022-11-05T21:08:12.011Z,7.55
2022-11-05T21:13:15.309Z,7.52
2022-11-05T21:18:18.377Z,7.49
2022-11-05T21:23:20.355Z,7.44
2022-11-05T21:28:22.323Z,7.39
2022-11-05T21:33:24.214Z,7.33
2022-11-05T21:38:26.098Z,7.25
2022-11-05T21:43:28.103Z,7.18
2022-11-05T21:48:31.183Z,7.16
2022-11-05T21:53:51.693Z,7.08
2022-11-05T21:59:12.396Z,7.00
2022-11-05T22:04:14.281Z,6.96
2022-11-05T22:09:20.158Z,6.92
2022-11-05T22:14:25.103Z,6.90
2022-11-05T22:19:27.290Z,6.87
2022-11-05T22:24:30.743Z,6.87
2022-11-05T22:29:32.922Z,6.88
2022-11-05T22:34:34.750Z,6.89
2022-11-05T22:39:37.256Z,6.89
2022-11-05T22:44:39.131Z,6.89
2022-11-05T22:49:40.931Z,6.86
2022-11-05T22:54:42.885Z,6.83
2022-11-05T22:59:44.762Z,6.81
2022-11-05T23:04:46.746Z,6.77
2022-11-05T23:10:07.462Z,6.73
2022-11-05T23:15:30.229Z,6.61
2022-11-05T23:20:51.258Z,6.45
2022-11-05T23:25:57.854Z,6.32
2022-11-05T23:31:18.565Z,6.14
2022-11-05T23:36:46.549Z,6.02
2022-11-05T23:42:23.496Z,5.90
2022-11-05T23:47:45.807Z,5.81
2022-11-05T23:52:47.683Z,5.79
2022-11-05T23:57:50.378Z,5.76
